Time;durP1;ratioP1;P1;durP2;ratioP2;P2;SDS_P1;SDS_P2;PMS_P1;PMS_P2;Temp;Humidity;BMP_temperature;BMP_pressure;BME280_temperature;BME280_humidity;BME280_pressure;Samples;Min_cycle;Max_cycle;Signal;HPM_P1;HPM_P2
2023/09/14 00:01:55;;;;;;;6.63;3.47;;;16.20;99.90;;;;;;5052471;28;20055;-57
2023/09/14 00:04:22;;;;;;;7.07;4.00;;;16.20;99.90;;;;;;5052272;28;20559;-56
2023/09/14 00:06:49;;;;;;;10.35;4.43;;;16.20;99.90;;;;;;5052162;28;20039;-59
2023/09/14 00:09:16;;;;;;;;;;;16.20;99.90;;;;;;5052837;28;20033;-55
2023/09/14 00:11:43;;;;;;;8.57;4.35;;;16.20;99.90;;;;;;5051098;28;20432;-59
2023/09/14 00:14:10;;;;;;;9.88;4.57;;;16.20;99.90;;;;;;5051188;28;20151;-58
2023/09/14 00:16:37;;;;;;;8.57;4.38;;;16.10;99.90;;;;;;5050925;28;20044;-56
2023/09/14 00:19:04;;;;;;;9.40;4.05;;;16.10;99.90;;;;;;5051505;28;20045;-57
2023/09/14 00:21:31;;;;;;;8.88;4.22;;;16.20;99.90;;;;;;5051163;28;20033;-59
2023/09/14 00:23:58;;;;;;;7.38;3.75;;;16.20;99.90;;;;;;5051758;28;20041;-60
2023/09/14 00:26:24;;;;;;;7.75;3.92;;;16.20;99.90;;;;;;5050454;28;20056;-59
2023/09/14 00:28:53;;;;;;;7.10;3.92;;;16.20;99.90;;;;;;5051868;28;20095;-60
2023/09/14 00:31:19;;;;;;;7.28;4.28;;;16.20;99.90;;;;;;5050134;28;20039;-59
2023/09/14 00:33:46;;;;;;;7.65;4.28;;;16.20;99.90;;;;;;5050411;28;20037;-60
2023/09/14 00:36:13;;;;;;;5.45;3.78;;;16.20;99.90;;;;;;5052137;28;20076;-60
2023/09/14 00:38:40;;;;;;;7.78;4.03;;;16.20;99.90;;;;;;5049397;28;20073;-59
2023/09/14 00:41:08;;;;;;;8.05;4.70;;;16.30;99.90;;;;;;5040837;28;20037;-57
2023/09/14 00:43:35;;;;;;;14.98;4.60;;;16.20;99.90;;;;;;5049980;28;20516;-60
2023/09/14 00:46:02;;;;;;;6.40;3.75;;;16.20;99.90;;;;;;5048875;28;20540;-59
2023/09/14 00:48:29;;;;;;;;;;;16.20;99.90;;;;;;5051137;28;20037;-59
2023/09/14 00:50:56;;;;;;;6.85;3.92;;;16.20;99.90;;;;;;5050602;28;19928;-60
2023/09/14 00:53:23;;;;;;;4.95;3.78;;;16.20;99.90;;;;;;5051446;28;20394;-59
2023/09/14 00:55:50;;;;;;;7.70;4.93;;;16.20;99.90;;;;;;5049924;28;20059;-59
2023/09/14 00:58:17;;;;;;;;;;;16.20;99.90;;;;;;5049624;28;20053;-59
2023/09/14 01:00:44;;;;;;;8.88;3.65;;;16.20;99.90;;;;;;5051541;28;19921;-61
2023/09/14 01:03:13;;;;;;;6.10;3.65;;;16.20;99.90;;;;;;5051429;28;20041;-60
2023/09/14 01:05:41;;;;;;;4.85;3.45;;;16.20;99.90;;;;;;5050397;28;20045;-57
2023/09/14 01:08:08;;;;;;;5.80;3.30;;;16.10;99.90;;;;;;5050995;28;20455;-60
2023/09/14 01:10:35;;;;;;;5.55;3.78;;;16.10;99.90;;;;;;5031005;28;20383;-58
2023/09/14 01:13:02;;;;;;;6.05;3.65;;;16.00;99.90;;;;;;5046869;28;20057;-59
2023/09/14 01:15:36;;;;;;;7.10;4.10;;;16.10;99.90;;;;;;5050470;28;20049;-59
2023/09/14 01:18:03;;;;;;;7.13;3.70;;;16.00;99.90;;;;;;5040381;28;20045;-59
2023/09/14 01:20:49;;;;;;;8.07;3.88;;;16.00;99.90;;;;;;5049484;28;20045;-59
2023/09/14 01:23:41;;;;;;;8.50;3.88;;;16.00;99.90;;;;;;5049211;28;20060;-58
2023/09/14 01:26:09;;;;;;;10.57;3.80;;;16.00;99.90;;;;;;5049965;28;20043;-59
2023/09/14 01:28:37;;;;;;;8.93;4.57;;;16.10;99.90;;;;;;5049576;28;20076;-60
2023/09/14 01:31:04;;;;;;;7.10;4.03;;;16.10;99.90;;;;;;5049325;28;20045;-58
2023/09/14 01:33:31;;;;;;;6.78;3.65;;;16.10;99.90;;;;;;5040739;28;20056;-59
2023/09/14 01:36:20;;;;;;;7.93;3.75;;;16.10;99.90;;;;;;5050443;28;20098;-60
2023/09/14 01:38:47;;;;;;;6.43;4.72;;;16.10;99.90;;;;;;5032849;28;20041;-60
2023/09/14 01:41:16;;;;;;;6.95;4.05;;;16.10;99.90;;;;;;5049527;28;20053;-59
2023/09/14 01:43:45;;;;;;;6.82;4.60;;;16.20;99.90;;;;;;5049597;28;20059;-59
2023/09/14 01:46:13;;;;;;;5.07;3.55;;;16.20;99.90;;;;;;5049715;28;20492;-60
2023/09/14 01:48:40;;;;;;;6.05;3.10;;;16.20;99.90;;;;;;5049464;28;20658;-60
2023/09/14 01:51:07;;;;;;;7.50;3.75;;;16.20;99.90;;;;;;5049100;28;20059;-58
2023/09/14 01:53:35;;;;;;;6.30;3.70;;;16.20;99.90;;;;;;5049673;28;20033;-59
2023/09/14 01:56:02;;;;;;;5.15;3.63;;;16.20;99.90;;;;;;5051222;28;20041;-59
2023/09/14 01:58:32;;;;;;;5.30;3.45;;;16.20;99.90;;;;;;5046633;28;20046;-60
2023/09/14 02:00:58;;;;;;;8.90;3.13;;;16.20;99.90;;;;;;5049169;28;20059;-59
2023/09/14 02:03:26;;;;;;;4.35;3.40;;;16.10;99.90;;;;;;5048269;28;20045;-59
2023/09/14 02:05:58;;;;;;;8.35;3.28;;;16.10;99.90;;;;;;5049596;28;20049;-60
2023/09/14 02:08:25;;;;;;;4.72;3.50;;;16.10;99.90;;;;;;5043270;28;20041;-59
2023/09/14 02:10:52;;;;;;;6.03;3.83;;;16.20;99.90;;;;;;5042627;28;20588;-60
2023/09/14 02:13:19;;;;;;;6.18;4.10;;;16.10;99.90;;;;;;5048257;28;20140;-59
2023/09/14 02:15:46;;;;;;;5.82;3.42;;;16.20;99.90;;;;;;5048503;28;20033;-59
2023/09/14 02:18:13;;;;;;;5.28;3.55;;;16.20;99.90;;;;;;5042596;28;20502;-58
2023/09/14 02:20:39;;;;;;;5.10;3.90;;;16.20;99.90;;;;;;5048901;28;20044;-59
2023/09/14 02:23:07;;;;;;;5.97;3.55;;;16.20;99.90;;;;;;5050799;28;20106;-59
2023/09/14 02:25:34;;;;;;;6.57;3.63;;;16.20;99.90;;;;;;5050158;28;20055;-60
2023/09/14 02:28:02;;;;;;;7.38;3.72;;;16.20;99.90;;;;;;5047994;28;20504;-58
2023/09/14 02:30:29;;;;;;;4.45;3.30;;;16.10;99.90;;;;;;5041450;28;20029;-58
2023/09/14 02:32:56;;;;;;;4.35;3.00;;;16.20;99.90;;;;;;5037311;28;20052;-58
2023/09/14 02:35:23;;;;;;;8.63;3.08;;;16.10;99.90;;;;;;5040839;28;20111;-59
2023/09/14 02:37:49;;;;;;;5.22;3.72;;;16.10;99.90;;;;;;5045056;28;20033;-56
2023/09/14 02:40:16;;;;;;;16.73;4.30;;;16.10;99.90;;;;;;5029218;28;20060;-59
2023/09/14 02:42:43;;;;;;;6.82;4.18;;;16.10;99.90;;;;;;5046035;28;20072;-59
2023/09/14 02:45:10;;;;;;;5.20;3.40;;;16.10;99.90;;;;;;5052871;28;20037;-58
2023/09/14 02:47:37;;;;;;;4.95;3.55;;;16.20;99.90;;;;;;5051131;28;20049;-59
2023/09/14 02:50:04;;;;;;;5.13;3.67;;;16.10;99.90;;;;;;5052320;28;20045;-59
2023/09/14 02:52:32;;;;;;;6.78;3.97;;;16.10;99.90;;;;;;5052611;28;20486;-59
2023/09/14 02:54:59;;;;;;;9.98;4.40;;;16.20;99.90;;;;;;5047900;28;20045;-57
2023/09/14 02:57:26;;;;;;;;;;;16.20;99.90;;;;;;5048660;28;20045;-59
2023/09/14 02:59:54;;;;;;;10.38;3.90;;;16.20;99.90;;;;;;5050860;28;19921;-60
2023/09/14 03:02:22;;;;;;;5.05;3.67;;;16.20;99.90;;;;;;5052526;28;20086;-59
2023/09/14 03:04:49;;;;;;;9.90;4.28;;;16.20;99.90;;;;;;5051295;28;20033;-56
2023/09/14 03:07:16;;;;;;;;;;;16.20;99.90;;;;;;5053023;28;20043;-58
2023/09/14 03:09:43;;;;;;;6.72;4.55;;;16.20;99.90;;;;;;5051536;28;19921;-57
2023/09/14 03:12:10;;;;;;;5.82;4.65;;;16.10;99.90;;;;;;5052218;28;20043;-60
2023/09/14 03:14:37;;;;;;;8.38;4.75;;;16.20;99.90;;;;;;5051388;28;20583;-60
2023/09/14 03:17:05;;;;;;;7.82;4.55;;;16.20;99.90;;;;;;5053872;28;20397;-59
2023/09/14 03:19:31;;;;;;;6.43;4.15;;;16.20;99.90;;;;;;5048770;28;20398;-60
2023/09/14 03:21:59;;;;;;;6.05;4.00;;;16.10;99.90;;;;;;5052028;28;20124;-60
2023/09/14 03:24:26;;;;;;;6.63;4.75;;;16.20;99.90;;;;;;5052571;28;20052;-60
2023/09/14 03:26:52;;;;;;;4.10;3.35;;;16.20;99.90;;;;;;5052224;28;20041;-60
2023/09/14 03:29:19;;;;;;;6.93;3.35;;;16.10;99.90;;;;;;5052863;28;20043;-58
2023/09/14 03:31:46;;;;;;;11.27;3.85;;;16.10;99.90;;;;;;5051614;28;20041;-60
2023/09/14 03:34:13;;;;;;;5.65;3.03;;;16.10;99.90;;;;;;5050752;28;20567;-59
2023/09/14 03:36:40;;;;;;;6.05;3.33;;;16.00;99.90;;;;;;5051862;28;20139;-56
2023/09/14 03:39:08;;;;;;;5.95;3.85;;;16.10;99.90;;;;;;5051548;28;20060;-59
2023/09/14 03:41:35;;;;;;;4.88;3.13;;;16.10;99.90;;;;;;5051551;28;20056;-59
2023/09/14 03:44:02;;;;;;;5.25;3.35;;;16.10;99.90;;;;;;5051250;28;20041;-58
2023/09/14 03:46:29;;;;;;;4.40;3.45;;;16.10;99.90;;;;;;5050763;28;20497;-56
2023/09/14 03:48:56;;;;;;;15.00;4.60;;;16.10;99.90;;;;;;5051086;28;20037;-60
2023/09/14 03:51:23;;;;;;;118.65;9.25;;;16.10;99.90;;;;;;5050084;28;20125;-59
2023/09/14 03:53:50;;;;;;;36.45;5.47;;;16.10;99.90;;;;;;5043551;28;20052;-58
2023/09/14 03:56:16;;;;;;;7.22;3.97;;;16.10;99.90;;;;;;5051125;28;20140;-59
2023/09/14 03:58:44;;;;;;;6.22;4.00;;;16.10;99.90;;;;;;5051303;28;20041;-59
2023/09/14 04:01:11;;;;;;;6.10;3.90;;;16.00;99.90;;;;;;5049988;28;20060;-59
2023/09/14 04:03:38;;;;;;;6.35;3.45;;;16.00;99.90;;;;;;5051177;28;20045;-59
2023/09/14 04:06:05;;;;;;;5.22;3.60;;;16.00;99.90;;;;;;5050573;28;20482;-59
2023/09/14 04:08:32;;;;;;;6.40;4.22;;;16.00;99.90;;;;;;5052109;28;20451;-60
2023/09/14 04:11:02;;;;;;;5.00;3.55;;;16.00;99.90;;;;;;5051077;28;20032;-61
2023/09/14 04:13:32;;;;;;;4.80;3.20;;;16.00;99.90;;;;;;5051105;28;20040;-59
2023/09/14 04:16:04;;;;;;;5.50;3.90;;;16.00;99.90;;;;;;5044684;28;20124;-58
2023/09/14 04:18:35;;;;;;;6.60;3.40;;;16.00;99.90;;;;;;5050828;28;20099;-59
2023/09/14 04:21:03;;;;;;;8.27;4.18;;;16.00;99.90;;;;;;5049679;28;20044;-59
2023/09/14 04:23:30;;;;;;;8.73;3.67;;;16.00;99.90;;;;;;5050420;28;20060;-59
2023/09/14 04:26:00;;;;;;;5.65;3.90;;;16.00;99.90;;;;;;5050651;28;20033;-57
2023/09/14 04:28:28;;;;;;;5.88;4.05;;;15.90;99.90;;;;;;5050101;28;20037;-59
2023/09/14 04:31:01;;;;;;;8.10;4.68;;;16.00;99.90;;;;;;5049660;28;20446;-58
2023/09/14 04:33:33;;;;;;;7.35;3.70;;;15.90;99.90;;;;;;5050718;28;20041;-59
2023/09/14 04:36:03;;;;;;;5.03;3.95;;;16.00;99.90;;;;;;5052057;28;20087;-59
2023/09/14 04:38:32;;;;;;;6.75;4.10;;;15.90;99.90;;;;;;5051900;28;20043;-60
2023/09/14 04:41:04;;;;;;;9.13;4.30;;;15.90;99.90;;;;;;5048557;28;20489;-58
2023/09/14 04:43:32;;;;;;;8.25;4.82;;;16.00;99.90;;;;;;5050570;28;20474;-60
2023/09/14 04:46:01;;;;;;;5.97;4.32;;;16.00;99.90;;;;;;5049458;28;20111;-58
2023/09/14 04:48:28;;;;;;;8.52;4.22;;;16.00;99.90;;;;;;5042886;28;20036;-59
2023/09/14 04:50:57;;;;;;;10.18;4.50;;;16.00;99.90;;;;;;5048880;28;20461;-59
2023/09/14 04:53:25;;;;;;;6.85;4.28;;;16.00;99.90;;;;;;5047998;28;20753;-60
2023/09/14 04:55:52;;;;;;;9.40;3.88;;;16.00;99.90;;;;;;5049720;28;20132;-60
2023/09/14 04:58:20;;;;;;;4.65;2.92;;;16.00;99.90;;;;;;5049158;28;20048;-60
2023/09/14 05:00:50;;;;;;;4.55;3.30;;;16.10;99.90;;;;;;5046426;28;20056;-60
2023/09/14 05:03:18;;;;;;;6.13;3.17;;;16.10;99.90;;;;;;5047611;28;20549;-60
2023/09/14 05:05:53;;;;;;;3.90;3.08;;;16.10;99.90;;;;;;5048851;28;20040;-59
2023/09/14 05:08:21;;;;;;;6.95;3.60;;;16.00;99.90;;;;;;5046342;28;20034;-58
2023/09/14 05:10:51;;;;;;;7.88;3.17;;;16.10;99.90;;;;;;5030668;28;20874;-59
2023/09/14 05:13:22;;;;;;;7.53;3.35;;;16.00;99.90;;;;;;5041640;28;20416;-59
2023/09/14 05:15:50;;;;;;;4.07;3.30;;;16.10;99.90;;;;;;5042089;28;20393;-58
2023/09/14 05:18:22;;;;;;;5.68;3.17;;;16.10;99.90;;;;;;5041190;28;20037;-59
2023/09/14 05:20:49;;;;;;;5.03;3.10;;;16.10;99.90;;;;;;5045612;28;20048;-60
2023/09/14 05:23:16;;;;;;;3.47;2.80;;;16.10;99.90;;;;;;5049247;28;20118;-60
2023/09/14 05:25:44;;;;;;;;;;;16.10;99.90;;;;;;5038076;28;20137;-60
2023/09/14 05:28:12;;;;;;;6.67;4.93;;;16.10;99.90;;;;;;5049243;28;20021;-57
2023/09/14 05:30:39;;;;;;;11.80;5.03;;;16.20;99.90;;;;;;5047402;28;20299;-60
2023/09/14 05:33:09;;;;;;;7.97;3.70;;;16.20;99.90;;;;;;5049122;28;20075;-60
2023/09/14 05:35:37;;;;;;;4.05;2.95;;;16.20;99.90;;;;;;5047769;28;20135;-59
2023/09/14 05:38:04;;;;;;;6.20;3.00;;;16.20;99.90;;;;;;5048322;28;20053;-60
2023/09/14 05:40:32;;;;;;;7.60;3.72;;;16.30;99.90;;;;;;5046796;28;20489;-59
2023/09/14 05:42:59;;;;;;;5.90;2.92;;;16.30;99.90;;;;;;5047722;28;20120;-60
2023/09/14 05:45:27;;;;;;;6.03;3.00;;;16.30;99.90;;;;;;5049352;28;20048;-60
2023/09/14 05:47:55;;;;;;;6.10;3.15;;;16.30;99.90;;;;;;5048111;28;20075;-60
2023/09/14 05:50:22;;;;;;;5.90;3.60;;;16.30;99.90;;;;;;5047127;28;20041;-59
2023/09/14 05:52:50;;;;;;;7.35;4.13;;;16.30;99.90;;;;;;5049833;28;20041;-58
2023/09/14 05:55:18;;;;;;;7.97;4.47;;;16.40;99.90;;;;;;5048869;28;20069;-60
2023/09/14 05:57:45;;;;;;;5.43;4.13;;;16.40;99.90;;;;;;5048643;28;20053;-59
2023/09/14 06:00:13;;;;;;;4.25;2.72;;;16.40;99.90;;;;;;5046569;28;20029;-59
2023/09/14 06:02:46;;;;;;;5.70;2.80;;;16.40;99.90;;;;;;5047046;28;20401;-60
2023/09/14 06:05:14;;;;;;;4.82;2.70;;;16.40;99.90;;;;;;5047382;28;20508;-59
2023/09/14 06:07:52;;;;;;;3.65;2.53;;;16.40;99.90;;;;;;5044740;28;20042;-60
2023/09/14 06:10:19;;;;;;;4.85;2.58;;;16.40;99.90;;;;;;5038407;28;20409;-60
2023/09/14 06:12:46;;;;;;;5.40;3.20;;;16.40;99.90;;;;;;5047144;28;20049;-60
2023/09/14 06:15:13;;;;;;;3.53;2.50;;;16.40;99.90;;;;;;5047438;28;20041;-60
2023/09/14 06:17:41;;;;;;;9.95;3.30;;;16.50;99.90;;;;;;5052910;28;20512;-58
2023/09/14 06:20:08;;;;;;;6.65;3.60;;;16.60;99.90;;;;;;5053678;28;20083;-59
2023/09/14 06:22:35;;;;;;;5.50;3.25;;;16.60;99.90;;;;;;5052484;28;20044;-59
2023/09/14 06:25:02;;;;;;;5.63;3.80;;;16.70;99.90;;;;;;5052673;28;20506;-58
2023/09/14 06:27:29;;;;;;;6.25;4.47;;;16.80;99.90;;;;;;5054212;28;20037;-57
2023/09/14 06:29:55;;;;;;;10.38;4.95;;;16.80;99.90;;;;;;5048562;28;20494;-58
2023/09/14 06:32:23;;;;;;;8.63;4.55;;;16.80;99.90;;;;;;5041298;28;20045;-58
2023/09/14 06:34:50;;;;;;;5.72;4.60;;;16.70;99.90;;;;;;5040785;28;20041;-58
2023/09/14 06:37:18;;;;;;;8.13;5.10;;;16.80;99.90;;;;;;5042437;28;20045;-58
2023/09/14 06:39:45;;;;;;;9.40;5.18;;;16.80;99.90;;;;;;5036254;28;20410;-59
2023/09/14 06:42:12;;;;;;;8.15;5.35;;;16.70;99.90;;;;;;5040004;28;20116;-60
2023/09/14 06:44:39;;;;;;;13.10;6.15;;;16.60;99.90;;;;;;5053890;28;20543;-59
2023/09/14 06:47:06;;;;;;;10.38;5.60;;;16.70;99.90;;;;;;5044660;28;20045;-60
2023/09/14 06:49:33;;;;;;;10.60;6.45;;;16.80;99.90;;;;;;5053215;28;20041;-58
2023/09/14 06:52:00;;;;;;;11.65;7.07;;;16.80;99.90;;;;;;5053172;28;20041;-58
2023/09/14 06:54:27;;;;;;;9.85;6.50;;;16.80;99.90;;;;;;5051276;28;20033;-60
2023/09/14 06:56:54;;;;;;;10.40;6.32;;;16.90;99.90;;;;;;5045102;28;20059;-59
2023/09/14 06:59:21;;;;;;;12.25;6.78;;;16.90;99.90;;;;;;5052594;28;20047;-58
2023/09/14 07:01:48;;;;;;;8.88;6.05;;;16.90;99.90;;;;;;5052858;28;20055;-57
2023/09/14 07:04:15;;;;;;;10.18;6.00;;;16.90;99.90;;;;;;5052355;28;20041;-59
2023/09/14 07:06:42;;;;;;;9.50;4.93;;;17.00;99.90;;;;;;5053104;28;20045;-60
2023/09/14 07:09:09;;;;;;;7.70;5.70;;;17.00;99.90;;;;;;5043902;28;20043;-59
2023/09/14 07:11:36;;;;;;;8.20;5.75;;;17.10;99.90;;;;;;5051287;28;20059;-59
2023/09/14 07:14:03;;;;;;;9.45;5.53;;;17.10;99.90;;;;;;5053154;28;20355;-59
2023/09/14 07:16:30;;;;;;;11.45;6.03;;;17.10;99.90;;;;;;5052483;28;20036;-59
2023/09/14 07:18:58;;;;;;;9.35;6.88;;;17.10;99.90;;;;;;5052798;28;20041;-59
2023/09/14 07:21:27;;;;;;;10.43;6.57;;;17.20;99.90;;;;;;5051665;28;20110;-58
2023/09/14 07:23:53;;;;;;;12.60;8.63;;;17.20;99.90;;;;;;5052997;28;20041;-58
2023/09/14 07:26:20;;;;;;;11.48;7.38;;;17.30;99.90;;;;;;5049605;28;20033;-58
2023/09/14 07:28:47;;;;;;;7.82;6.25;;;17.30;99.90;;;;;;5052862;28;20073;-57
2023/09/14 07:31:14;;;;;;;10.60;6.47;;;17.40;99.90;;;;;;5051335;28;20478;-60
2023/09/14 07:33:41;;;;;;;12.75;6.85;;;17.40;99.90;;;;;;5049756;28;20049;-60
2023/09/14 07:36:07;;;;;;;8.50;6.10;;;17.50;99.90;;;;;;5052535;28;20512;-58
2023/09/14 07:38:34;;;;;;;9.68;5.82;;;17.60;99.90;;;;;;5051364;28;20049;-58
2023/09/14 07:41:01;;;;;;;14.30;7.03;;;17.70;99.90;;;;;;5052317;28;20049;-60
2023/09/14 07:43:28;;;;;;;9.40;6.65;;;17.80;99.90;;;;;;5051227;28;20048;-59
2023/09/14 07:45:56;;;;;;;11.25;6.15;;;17.80;99.90;;;;;;5051166;28;20520;-58
2023/09/14 07:48:23;;;;;;;8.68;6.32;;;17.90;99.90;;;;;;5051329;28;20048;-60
2023/09/14 07:50:50;;;;;;;9.02;6.60;;;18.00;99.90;;;;;;5051297;28;20041;-60
2023/09/14 07:53:17;;;;;;;8.63;6.18;;;18.20;99.90;;;;;;5052667;28;20072;-58
2023/09/14 07:55:45;;;;;;;9.05;6.50;;;18.50;99.90;;;;;;5051915;28;20047;-59
2023/09/14 07:58:12;;;;;;;11.82;7.25;;;18.90;99.90;;;;;;5049914;28;20041;-60
2023/09/14 08:00:39;;;;;;;;;;;19.30;99.90;;;;;;5050872;28;20144;-58
2023/09/14 08:03:06;;;;;;;15.45;7.75;;;19.60;99.90;;;;;;5051589;28;19928;-58
2023/09/14 08:05:32;;;;;;;10.82;7.78;;;19.70;99.90;;;;;;5051296;28;20051;-57
2023/09/14 08:07:59;;;;;;;14.88;9.80;;;19.80;99.90;;;;;;5052139;28;20452;-58
2023/09/14 08:10:26;;;;;;;15.77;9.40;;;20.00;99.90;;;;;;5051466;28;20029;-59
2023/09/14 08:12:53;;;;;;;15.82;9.80;;;20.10;99.90;;;;;;5052343;28;20409;-59
2023/09/14 08:15:20;;;;;;;14.45;9.02;;;20.10;99.90;;;;;;5050802;28;20509;-57
2023/09/14 08:17:46;;;;;;;14.23;9.30;;;20.10;99.90;;;;;;5051986;28;20051;-60
2023/09/14 08:20:13;;;;;;;15.88;9.77;;;20.20;99.90;;;;;;5051353;28;20068;-58
2023/09/14 08:22:40;;;;;;;17.45;10.50;;;20.10;99.90;;;;;;5051621;28;20045;-60
2023/09/14 08:25:07;;;;;;;15.07;9.98;;;20.20;99.90;;;;;;5051876;28;20055;-60
2023/09/14 08:27:38;;;;;;;16.95;11.70;;;20.30;99.90;;;;;;5050315;28;20052;-60
2023/09/14 08:30:10;;;;;;;22.48;12.13;;;20.30;99.90;;;;;;5050836;28;20319;-60
2023/09/14 08:32:37;;;;;;;22.08;13.00;;;20.30;99.90;;;;;;5051292;28;20071;-58
2023/09/14 08:35:24;;;;;;;20.95;11.80;;;20.60;99.90;;;;;;5051635;28;20037;-60
2023/09/14 08:37:55;;;;;;;;;;;20.90;99.90;;;;;;5050167;28;20547;-60
2023/09/14 08:40:23;;;;;;;19.75;12.48;;;20.90;99.90;;;;;;5050961;28;19927;-60
2023/09/14 08:42:54;;;;;;;20.33;13.18;;;20.80;99.90;;;;;;5051215;28;20119;-58
2023/09/14 08:45:30;;;;;;;19.60;12.25;;;20.60;99.90;;;;;;5044257;28;20049;-60
2023/09/14 08:47:59;;;;;;;20.52;11.85;;;20.80;99.90;;;;;;5050753;28;20037;-60
2023/09/14 08:50:29;;;;;;;19.83;12.20;;;21.10;99.90;;;;;;5049885;28;20045;-59
2023/09/14 08:52:56;;;;;;;21.08;13.77;;;21.20;99.90;;;;;;5049980;28;20136;-59
2023/09/14 08:55:25;;;;;;;22.83;13.57;;;21.00;99.90;;;;;;5051062;28;20044;-58
2023/09/14 08:57:53;;;;;;;19.23;13.30;;;20.80;99.90;;;;;;5049995;28;20485;-59
2023/09/14 09:00:20;;;;;;;19.55;13.85;;;20.60;99.90;;;;;;5042626;28;20123;-59
2023/09/14 09:02:53;;;;;;;21.90;13.68;;;20.80;99.90;;;;;;5050632;28;20045;-59
2023/09/14 09:05:21;;;;;;;21.33;13.60;;;20.90;99.90;;;;;;5049468;28;20055;-60
2023/09/14 09:07:48;;;;;;;18.85;12.77;;;21.00;99.90;;;;;;5051178;28;20045;-61
2023/09/14 09:10:22;;;;;;;21.52;14.05;;;21.00;99.90;;;;;;5050094;28;20047;-60
2023/09/14 09:12:56;;;;;;;18.98;13.55;;;21.00;99.90;;;;;;5051099;28;20136;-60
2023/09/14 09:15:27;;;;;;;24.75;15.65;;;20.90;99.90;;;;;;5049814;28;20489;-60
2023/09/14 09:18:02;;;;;;;22.35;14.48;;;21.00;99.90;;;;;;5050810;28;20131;-61
2023/09/14 09:20:30;;;;;;;22.83;14.85;;;21.00;99.90;;;;;;5050399;28;20041;-60
2023/09/14 09:22:59;;;;;;;21.73;14.65;;;21.00;99.90;;;;;;5049255;28;20045;-59
2023/09/14 09:25:29;;;;;;;20.63;15.05;;;21.10;99.90;;;;;;5050922;28;20521;-60
2023/09/14 09:28:00;;;;;;;21.30;14.57;;;21.10;99.90;;;;;;5049110;28;20037;-59
2023/09/14 09:30:32;;;;;;;25.42;16.23;;;20.90;99.90;;;;;;5050621;28;20111;-59
2023/09/14 09:33:04;;;;;;;27.70;15.68;;;20.90;99.90;;;;;;5049025;28;20091;-60
2023/09/14 09:35:31;;;;;;;28.40;17.38;;;21.10;99.90;;;;;;5050975;28;20080;-59
2023/09/14 09:38:00;;;;;;;23.30;14.38;;;21.10;99.90;;;;;;5050379;28;20428;-60
2023/09/14 09:40:31;;;;;;;20.15;13.85;;;21.20;99.90;;;;;;5049958;28;20040;-58
2023/09/14 09:43:03;;;;;;;19.58;13.68;;;21.00;99.90;;;;;;5038170;28;20054;-61
2023/09/14 09:45:30;;;;;;;21.95;14.80;;;21.10;99.90;;;;;;5050422;28;20507;-60
2023/09/14 09:48:01;;;;;;;17.33;11.80;;;21.00;99.90;;;;;;5049434;28;20040;-59
2023/09/14 09:50:28;;;;;;;19.92;14.73;;;20.80;99.90;;;;;;5052070;28;20450;-59
2023/09/14 09:52:55;;;;;;;;;;;20.70;99.90;;;;;;5053924;28;20049;-60
2023/09/14 09:55:24;;;;;;;17.75;10.43;;;20.60;99.90;;;;;;5054509;28;19925;-60
2023/09/14 09:57:53;;;;;;;14.48;10.50;;;21.00;99.90;;;;;;5054385;28;20049;-60
2023/09/14 10:00:26;;;;;;;18.88;12.55;;;21.50;99.90;;;;;;5054081;28;20032;-59
2023/09/14 10:02:54;;;;;;;16.60;10.35;;;21.80;99.90;;;;;;5053335;28;20045;-59
2023/09/14 10:05:36;;;;;;;17.40;11.35;;;21.90;99.90;;;;;;5054427;28;20037;-61
2023/09/14 10:08:03;;;;;;;13.10;9.13;;;22.00;99.90;;;;;;5053555;28;20056;-60
2023/09/14 10:10:32;;;;;;;;;;;22.10;99.90;;;;;;5054563;28;20043;-59
2023/09/14 10:12:59;;;;;;;13.38;9.23;;;22.30;99.90;;;;;;5042554;28;19931;-60
2023/09/14 10:15:28;;;;;;;13.73;10.43;;;22.40;99.90;;;;;;5052848;28;20033;-60
2023/09/14 10:17:56;;;;;;;17.77;11.02;;;22.40;99.90;;;;;;5053158;28;20045;-59
2023/09/14 10:20:26;;;;;;;18.27;11.82;;;22.60;99.90;;;;;;5052658;28;20049;-60
2023/09/14 10:22:53;;;;;;;17.85;11.82;;;22.60;99.90;;;;;;5053208;28;20048;-59
2023/09/14 10:25:21;;;;;;;14.05;10.73;;;22.60;99.90;;;;;;5054104;28;20500;-60
2023/09/14 10:27:47;;;;;;;14.10;11.23;;;22.60;99.90;;;;;;5053841;28;20041;-61
2023/09/14 10:30:18;;;;;;;15.52;11.20;;;22.40;99.90;;;;;;5053092;28;20087;-59
2023/09/14 10:32:54;;;;;;;17.38;12.27;;;22.50;99.90;;;;;;5044485;28;20079;-58
2023/09/14 10:35:22;;;;;;;12.98;8.80;;;22.60;99.90;;;;;;5038757;28;20050;-59
2023/09/14 10:37:50;;;;;;;13.88;8.18;;;22.80;99.90;;;;;;5037907;28;20052;-58
2023/09/14 10:40:17;;;;;;;10.45;6.85;;;22.90;99.90;;;;;;5046628;28;20095;-60
2023/09/14 10:42:45;;;;;;;10.13;6.90;;;23.00;99.90;;;;;;5034370;28;20473;-59
2023/09/14 10:45:13;;;;;;;10.45;7.18;;;22.90;99.90;;;;;;5042515;28;20049;-57
2023/09/14 10:47:45;;;;;;;10.88;7.22;;;22.50;99.90;;;;;;5053419;28;20045;-60
2023/09/14 10:50:14;;;;;;;9.52;7.60;;;22.50;99.90;;;;;;5051422;28;20528;-59
2023/09/14 10:52:42;;;;;;;11.25;7.13;;;22.40;99.90;;;;;;5053700;28;20050;-60
2023/09/14 10:55:09;;;;;;;13.68;7.00;;;22.60;99.90;;;;;;5051956;28;20053;-59
2023/09/14 10:57:40;;;;;;;10.02;7.25;;;22.80;99.90;;;;;;5052864;28;20045;-60
2023/09/14 11:00:09;;;;;;;10.98;7.07;;;22.60;99.90;;;;;;5052996;28;20045;-60
2023/09/14 11:02:51;;;;;;;12.00;7.78;;;22.60;99.90;;;;;;5051412;28;20561;-60
2023/09/14 11:05:19;;;;;;;;;;;22.50;99.90;;;;;;5053677;28;20044;-60
2023/09/14 11:07:53;;;;;;;9.55;7.72;;;22.20;99.90;;;;;;5053281;28;19920;-60
2023/09/14 11:10:22;;;;;;;11.05;8.40;;;21.80;99.90;;;;;;5051016;28;20041;-58
2023/09/14 11:12:49;;;;;;;10.35;8.00;;;22.10;99.90;;;;;;5053252;28;20115;-59
2023/09/14 11:15:22;;;;;;;10.25;7.63;;;22.10;99.90;;;;;;5052823;28;20375;-60
2023/09/14 11:17:52;;;;;;;13.15;7.43;;;21.80;99.90;;;;;;5053436;28;20053;-58
2023/09/14 11:20:24;;;;;;;9.45;7.10;;;22.00;99.90;;;;;;5050355;28;20060;-58
2023/09/14 11:22:57;;;;;;;10.23;5.95;;;22.10;99.90;;;;;;5053179;28;20053;-58
2023/09/14 11:25:36;;;;;;;6.90;5.82;;;22.20;99.90;;;;;;5052701;28;20044;-59
2023/09/14 11:28:23;;;;;;;9.45;5.57;;;22.30;99.90;;;;;;5051057;28;20040;-59
2023/09/14 11:30:51;;;;;;;7.05;5.53;;;22.40;99.90;;;;;;5052594;28;20102;-57
2023/09/14 11:33:21;;;;;;;9.25;5.80;;;22.50;99.90;;;;;;5049820;28;20446;-57
2023/09/14 11:35:51;;;;;;;7.18;5.40;;;22.60;99.90;;;;;;5052298;28;20044;-59
2023/09/14 11:38:26;;;;;;;7.13;5.85;;;22.60;99.90;;;;;;5051311;28;20045;-60
2023/09/14 11:40:58;;;;;;;9.00;6.53;;;22.60;99.90;;;;;;5052622;28;20041;-59
2023/09/14 11:44:04;;;;;;;10.70;8.05;;;22.60;99.90;;;;;;5051616;28;20110;-60
2023/09/14 11:46:35;;;;;;;10.48;7.60;;;22.60;99.90;;;;;;5052731;28;20383;-59
2023/09/14 11:49:06;;;;;;;9.27;6.75;;;22.60;99.90;;;;;;5049879;28;20052;-59
2023/09/14 11:51:36;;;;;;;9.13;7.05;;;22.80;99.90;;;;;;5052009;28;20044;-59
2023/09/14 11:54:08;;;;;;;11.35;7.53;;;23.00;99.90;;;;;;5051841;28;20041;-60
2023/09/14 11:56:35;;;;;;;11.75;8.75;;;23.10;99.90;;;;;;5051368;28;20107;-60
2023/09/14 11:59:03;;;;;;;14.80;8.38;;;23.10;99.90;;;;;;5052247;28;20044;-60
2023/09/14 12:01:33;;;;;;;13.52;7.55;;;22.90;99.90;;;;;;5051710;28;20051;-60
2023/09/14 12:04:01;;;;;;;11.25;7.57;;;23.00;99.90;;;;;;5052380;28;20056;-61
2023/09/14 12:06:29;;;;;;;13.77;8.20;;;23.00;99.90;;;;;;5051604;28;20043;-60
2023/09/14 12:08:57;;;;;;;9.48;7.60;;;23.10;99.90;;;;;;5052064;28;20048;-59
2023/09/14 12:11:37;;;;;;;9.80;7.38;;;23.10;99.90;;;;;;5050576;28;20036;-58
2023/09/14 12:14:03;;;;;;;7.63;6.70;;;23.20;99.90;;;;;;5051028;28;20041;-60
2023/09/14 12:16:30;;;;;;;10.55;6.68;;;23.10;99.90;;;;;;5051741;28;20449;-60
2023/09/14 12:18:57;;;;;;;9.27;7.82;;;23.10;99.90;;;;;;5050962;28;20120;-59
2023/09/14 12:21:25;;;;;;;;;;;23.10;99.90;;;;;;5051923;28;20118;-59
2023/09/14 12:23:53;;;;;;;17.17;10.85;;;23.00;99.90;;;;;;5050605;28;19927;-59
2023/09/14 12:26:22;;;;;;;14.68;10.55;;;22.80;99.90;;;;;;5051833;28;20067;-60
2023/09/14 12:28:57;;;;;;;16.50;11.27;;;22.80;99.90;;;;;;5051299;28;20448;-59
2023/09/14 12:31:25;;;;;;;16.35;10.95;;;22.60;99.90;;;;;;5051345;28;20041;-60
2023/09/14 12:33:53;;;;;;;21.25;12.27;;;22.60;99.90;;;;;;5050484;28;20033;-60
2023/09/14 12:36:20;;;;;;;17.73;11.68;;;22.60;99.90;;;;;;5051347;28;20068;-60
2023/09/14 12:38:48;;;;;;;16.17;10.30;;;22.60;99.90;;;;;;5051079;28;20052;-59
2023/09/14 12:41:15;;;;;;;17.50;9.77;;;22.60;99.90;;;;;;5049487;28;20055;-60
2023/09/14 12:43:43;;;;;;;13.23;8.52;;;22.60;99.90;;;;;;5051552;28;20120;-60
2023/09/14 12:46:13;;;;;;;12.45;7.78;;;22.60;99.90;;;;;;5050175;28;20407;-58
2023/09/14 12:48:42;;;;;;;9.20;7.70;;;22.60;99.90;;;;;;5042851;28;20049;-59
2023/09/14 12:51:12;;;;;;;13.32;9.23;;;22.60;99.90;;;;;;5050002;28;20060;-60